Amber, Washington
Current Conditions -  °F | °C
As of 11:28 PM on Tuesday 25 Nov 2014 (Local Time) from KSKA Reporting Station
Haze Haze  
Wind Chill:   Ceiling: 500
Heat Index:   Visibility: 5mi
Dew Point:   Wind: 3mph
Humidity: 100%   Direction: 40°NE
Pressure: 30.15"   Gusts: NA
Location:  47.411°N, 117.628°W
Report Text: KSKA 260728Z AUTO 04003KT 5SM R05/4500FT BR OVC005 00/00 A3015 RMK AO2
Loading
Personal Weather Stations






























Interactive Weather Map New forecast layout! Learn more

10-Day Weather Forecast

Advertisements
Track Severe Weather on mobile